sensor_id;sensor_type;location;lat;lon;timestamp;P1;durP1;ratioP1;P2;durP2;ratioP2
30337;SDS011;17143;51.888;5.408;2023-10-08T00:03:46;7.33;;;2.43;;
30337;SDS011;17143;51.888;5.408;2023-10-08T00:18:48;11.17;;;2.57;;
30337;SDS011;17143;51.888;5.408;2023-10-08T00:33:51;8.47;;;2.60;;
30337;SDS011;17143;51.888;5.408;2023-10-08T00:48:53;6.33;;;1.90;;
30337;SDS011;17143;51.888;5.408;2023-10-08T01:03:56;7.70;;;2.00;;
30337;SDS011;17143;51.888;5.408;2023-10-08T01:18:59;4.43;;;1.90;;
30337;SDS011;17143;51.888;5.408;2023-10-08T01:34:01;8.77;;;2.40;;
30337;SDS011;17143;51.888;5.408;2023-10-08T01:49:03;6.10;;;2.40;;
30337;SDS011;17143;51.888;5.408;2023-10-08T02:04:05;6.00;;;2.70;;
30337;SDS011;17143;51.888;5.408;2023-10-08T02:19:08;9.20;;;2.40;;
30337;SDS011;17143;51.888;5.408;2023-10-08T02:34:10;6.63;;;2.37;;
30337;SDS011;17143;51.888;5.408;2023-10-08T02:49:12;10.80;;;2.63;;
30337;SDS011;17143;51.888;5.408;2023-10-08T03:04:15;6.03;;;2.17;;
30337;SDS011;17143;51.888;5.408;2023-10-08T03:19:17;4.83;;;2.40;;
30337;SDS011;17143;51.888;5.408;2023-10-08T03:34:20;6.67;;;2.73;;
30337;SDS011;17143;51.888;5.408;2023-10-08T03:49:22;15.53;;;2.60;;
30337;SDS011;17143;51.888;5.408;2023-10-08T04:04:25;9.10;;;2.87;;
30337;SDS011;17143;51.888;5.408;2023-10-08T04:19:27;6.40;;;3.10;;
30337;SDS011;17143;51.888;5.408;2023-10-08T04:34:29;9.07;;;2.73;;
30337;SDS011;17143;51.888;5.408;2023-10-08T04:49:31;9.33;;;3.33;;
30337;SDS011;17143;51.888;5.408;2023-10-08T05:04:34;10.32;;;3.05;;
30337;SDS011;17143;51.888;5.408;2023-10-08T05:19:36;8.07;;;2.73;;
30337;SDS011;17143;51.888;5.408;2023-10-08T05:34:38;6.10;;;2.33;;
30337;SDS011;17143;51.888;5.408;2023-10-08T05:49:40;8.07;;;2.93;;
30337;SDS011;17143;51.888;5.408;2023-10-08T06:04:43;6.00;;;2.60;;
30337;SDS011;17143;51.888;5.408;2023-10-08T06:19:45;8.30;;;3.33;;
30337;SDS011;17143;51.888;5.408;2023-10-08T06:34:47;7.00;;;3.30;;
30337;SDS011;17143;51.888;5.408;2023-10-08T06:49:49;12.67;;;3.50;;
30337;SDS011;17143;51.888;5.408;2023-10-08T07:04:51;8.27;;;2.20;;
30337;SDS011;17143;51.888;5.408;2023-10-08T07:19:53;8.33;;;1.90;;
30337;SDS011;17143;51.888;5.408;2023-10-08T07:34:56;5.87;;;1.90;;
30337;SDS011;17143;51.888;5.408;2023-10-08T07:49:58;6.07;;;1.97;;
30337;SDS011;17143;51.888;5.408;2023-10-08T08:05:00;5.20;;;1.60;;
30337;SDS011;17143;51.888;5.408;2023-10-08T08:20:02;2.93;;;1.87;;
30337;SDS011;17143;51.888;5.408;2023-10-08T08:35:05;4.00;;;1.50;;
30337;SDS011;17143;51.888;5.408;2023-10-08T08:50:08;4.87;;;1.97;;
30337;SDS011;17143;51.888;5.408;2023-10-08T09:05:11;3.90;;;1.90;;
30337;SDS011;17143;51.888;5.408;2023-10-08T09:20:14;2.73;;;2.00;;
30337;SDS011;17143;51.888;5.408;2023-10-08T09:35:16;6.57;;;2.70;;
30337;SDS011;17143;51.888;5.408;2023-10-08T09:50:20;4.27;;;2.33;;
30337;SDS011;17143;51.888;5.408;2023-10-08T10:05:31;4.40;;;1.77;;
30337;SDS011;17143;51.888;5.408;2023-10-08T10:20:34;2.80;;;1.60;;
30337;SDS011;17143;51.888;5.408;2023-10-08T10:35:40;6.53;;;2.50;;
30337;SDS011;17143;51.888;5.408;2023-10-08T10:50:42;3.17;;;1.13;;
30337;SDS011;17143;51.888;5.408;2023-10-08T11:05:46;2.83;;;1.10;;
30337;SDS011;17143;51.888;5.408;2023-10-08T11:20:51;1.67;;;1.00;;
30337;SDS011;17143;51.888;5.408;2023-10-08T11:35:57;3.07;;;1.57;;
30337;SDS011;17143;51.888;5.408;2023-10-08T11:50:59;1.57;;;0.90;;
30337;SDS011;17143;51.888;5.408;2023-10-08T12:06:01;3.40;;;1.60;;
30337;SDS011;17143;51.888;5.408;2023-10-08T12:21:03;2.13;;;1.23;;
30337;SDS011;17143;51.888;5.408;2023-10-08T12:36:06;1.73;;;1.33;;
30337;SDS011;17143;51.888;5.408;2023-10-08T12:51:08;4.53;;;1.40;;
30337;SDS011;17143;51.888;5.408;2023-10-08T13:06:10;5.27;;;2.30;;
30337;SDS011;17143;51.888;5.408;2023-10-08T13:21:14;5.20;;;2.27;;
30337;SDS011;17143;51.888;5.408;2023-10-08T13:36:16;4.60;;;1.90;;
30337;SDS011;17143;51.888;5.408;2023-10-08T13:51:19;6.80;;;2.43;;
30337;SDS011;17143;51.888;5.408;2023-10-08T14:06:22;5.33;;;2.00;;
30337;SDS011;17143;51.888;5.408;2023-10-08T14:21:24;4.07;;;2.27;;
30337;SDS011;17143;51.888;5.408;2023-10-08T14:36:27;3.53;;;2.60;;
30337;SDS011;17143;51.888;5.408;2023-10-08T14:51:29;7.47;;;3.37;;
30337;SDS011;17143;51.888;5.408;2023-10-08T15:06:32;7.10;;;4.50;;
30337;SDS011;17143;51.888;5.408;2023-10-08T15:21:34;5.60;;;3.57;;
30337;SDS011;17143;51.888;5.408;2023-10-08T15:36:36;4.07;;;2.70;;
30337;SDS011;17143;51.888;5.408;2023-10-08T15:51:38;6.17;;;3.57;;
30337;SDS011;17143;51.888;5.408;2023-10-08T16:06:41;6.37;;;3.53;;
30337;SDS011;17143;51.888;5.408;2023-10-08T16:21:43;7.93;;;3.70;;
30337;SDS011;17143;51.888;5.408;2023-10-08T16:36:45;4.47;;;2.90;;
30337;SDS011;17143;51.888;5.408;2023-10-08T16:51:47;7.03;;;3.77;;
30337;SDS011;17143;51.888;5.408;2023-10-08T17:06:49;6.97;;;4.83;;
30337;SDS011;17143;51.888;5.408;2023-10-08T17:21:51;7.90;;;5.03;;
30337;SDS011;17143;51.888;5.408;2023-10-08T17:36:53;7.17;;;4.67;;
30337;SDS011;17143;51.888;5.408;2023-10-08T17:51:56;10.00;;;5.33;;
30337;SDS011;17143;51.888;5.408;2023-10-08T18:06:58;13.43;;;6.33;;
30337;SDS011;17143;51.888;5.408;2023-10-08T18:22:00;13.83;;;7.27;;
30337;SDS011;17143;51.888;5.408;2023-10-08T18:37:02;16.93;;;8.30;;
30337;SDS011;17143;51.888;5.408;2023-10-08T18:52:04;14.70;;;8.33;;
30337;SDS011;17143;51.888;5.408;2023-10-08T19:07:06;18.53;;;8.80;;
30337;SDS011;17143;51.888;5.408;2023-10-08T19:22:08;20.77;;;9.43;;
30337;SDS011;17143;51.888;5.408;2023-10-08T19:37:11;17.37;;;8.00;;
30337;SDS011;17143;51.888;5.408;2023-10-08T19:52:13;17.00;;;8.23;;
30337;SDS011;17143;51.888;5.408;2023-10-08T20:07:15;15.17;;;7.77;;
30337;SDS011;17143;51.888;5.408;2023-10-08T20:22:17;16.43;;;7.03;;
30337;SDS011;17143;51.888;5.408;2023-10-08T20:37:19;12.77;;;7.13;;
30337;SDS011;17143;51.888;5.408;2023-10-08T20:52:22;11.83;;;6.77;;
30337;SDS011;17143;51.888;5.408;2023-10-08T21:07:24;15.27;;;7.70;;
30337;SDS011;17143;51.888;5.408;2023-10-08T21:22:26;16.53;;;8.47;;
30337;SDS011;17143;51.888;5.408;2023-10-08T21:37:28;15.20;;;7.53;;
30337;SDS011;17143;51.888;5.408;2023-10-08T21:52:30;15.83;;;8.50;;
30337;SDS011;17143;51.888;5.408;2023-10-08T22:07:32;18.23;;;8.40;;
30337;SDS011;17143;51.888;5.408;2023-10-08T22:22:34;18.07;;;9.30;;
30337;SDS011;17143;51.888;5.408;2023-10-08T22:37:36;16.77;;;8.57;;
30337;SDS011;17143;51.888;5.408;2023-10-08T22:52:38;20.13;;;9.23;;
30337;SDS011;17143;51.888;5.408;2023-10-08T23:07:40;14.93;;;9.30;;
30337;SDS011;17143;51.888;5.408;2023-10-08T23:22:43;16.07;;;8.97;;
30337;SDS011;17143;51.888;5.408;2023-10-08T23:37:45;15.33;;;8.33;;
30337;SDS011;17143;51.888;5.408;2023-10-08T23:52:47;13.60;;;8.20;;
